Briefing drone pour Portes-les-valence

Rechercher une autre localisation

Conditions de vol :


Nous sommes le : Mardi 16 août 2022
Il est 00:51 UTC (02:51 LT)

Lever de soleil : 04:17 UTC (06:17 LT)
Coucher de soleil : 19:12 UTC (21:12 LT)

Météo

L'essentiel des conditions de vol

VIGILANCE MÉTÉO FRANCE - Drôme (26)
Pas de vigilances particulieres
CARTE TEMSI
CARTES DES FRONTS
METAR de LFLU
LFLU 151800Z AUTO 03004KT CAVOK 27/14 Q1007

Date d'émission: 15/08/2022
Heure d'émission: 18:00 UTC
Vent: 030° pour 4 KT (7 km/h)
Visibilité horizontale: > 10 km
Plafond : Plafond et visibilité OK (CAVOK)
Température: 27 °C
Point de rosée: 14 °C
Humidité: 45%
Pression (QNH): 1007 hPa
Prévision 24h pour Valence (5 km)
Vent : 176° pour 3 KT (11 km/h)
Temperature Maxi: 22 °C
Temperature Min: 22 °C
Humidité : 61%
Condition : Ciel dégagé



Warning: count(): Parameter must be an array or an object that implements Countable in /homepages/6/d509196549/htdocs/droneoxygene/briefing.php on line 743
WEBCAM POUR PORTES-LES-VALENCE

Réglementation

Voler en sécurité

CARTES AERONAUTIQUE 1/500.000
CARTE AZBA (Reseau basse altitude)
CARTES VAC (LFLU)
SUP AIP




Chargement des AIP...
NOTAM (PORTES-LES-VALENCE + Terrain à proximité / FIR )




Chargement des NOTAMS...
CONTACT PREFECTURE 26
Drôme (26) : ddt-satem@drome.gouv.fr


Avertissement : Les données mises à disposition sont indicatives. Oxygène Drone ne pourra être tenu responsable de dégâts causés aux biens et aux personnes.